Time;durP1;ratioP1;P1;durP2;ratioP2;P2;SDS_P1;SDS_P2;PMS_P1;PMS_P2;Temp;Humidity;BMP_temperature;BMP_pressure;BME280_temperature;BME280_humidity;BME280_pressure;Samples;Min_cycle;Max_cycle;Signal;HPM_P1;HPM_P2
2022/11/27 00:01:51;;;;;;;29.20;10.90;;;5.80;99.90;;;;;;5056102;28;20079;-44
2022/11/27 00:04:18;;;;;;;26.63;10.18;;;5.70;99.90;;;;;;5054877;28;20291;-43
2022/11/27 00:06:43;;;;;;;29.60;10.48;;;5.80;99.90;;;;;;5055692;28;20044;-46
2022/11/27 00:09:15;;;;;;;30.50;10.20;;;5.80;99.90;;;;;;5055250;28;20033;-42
2022/11/27 00:11:41;;;;;;;32.05;11.55;;;5.80;99.90;;;;;;5054960;28;20052;-45
2022/11/27 00:14:10;;;;;;;25.85;10.57;;;5.80;99.90;;;;;;5055581;28;20083;-42
2022/11/27 00:16:36;;;;;;;28.00;10.40;;;5.70;99.90;;;;;;5056035;28;20069;-48
2022/11/27 00:19:02;;;;;;;25.50;10.23;;;5.70;99.90;;;;;;5054098;28;20045;-41
2022/11/27 00:21:31;;;;;;;25.38;12.38;;;5.80;99.90;;;;;;5034434;28;20102;-48
2022/11/27 00:23:58;;;;;;;33.47;10.57;;;5.80;99.90;;;;;;5041521;28;20053;-43
2022/11/27 00:26:24;;;;;;;29.00;11.10;;;5.80;99.90;;;;;;5055246;28;20048;-42
2022/11/27 00:28:50;;;;;;;31.50;11.55;;;5.80;99.90;;;;;;5053735;28;20044;-46
2022/11/27 00:31:19;;;;;;;29.65;10.43;;;5.80;99.90;;;;;;5054769;28;20044;-46
2022/11/27 00:33:45;;;;;;;28.38;10.00;;;5.80;99.90;;;;;;5054945;28;20040;-46
2022/11/27 00:36:12;;;;;;;29.30;10.45;;;5.70;99.90;;;;;;5054187;28;20052;-44
2022/11/27 00:38:38;;;;;;;29.55;10.60;;;5.60;99.90;;;;;;5055389;28;20036;-43
2022/11/27 00:41:14;;;;;;;25.45;10.63;;;5.70;99.90;;;;;;5047479;28;20045;-45
2022/11/27 00:43:40;;;;;;;25.27;9.77;;;5.70;99.90;;;;;;5055899;28;20044;-45
2022/11/27 00:46:05;;;;;;;25.33;10.40;;;5.60;99.90;;;;;;5058359;28;20044;-44
2022/11/27 00:48:31;;;;;;;27.73;10.07;;;5.60;99.90;;;;;;5058447;28;20060;-48
2022/11/27 00:50:59;;;;;;;21.25;9.18;;;5.60;99.90;;;;;;5056999;28;20048;-51
2022/11/27 00:53:25;;;;;;;30.20;10.35;;;5.60;99.90;;;;;;5058736;28;20525;-47
2022/11/27 00:55:51;;;;;;;25.38;9.88;;;5.60;99.90;;;;;;5057255;28;20048;-47
2022/11/27 00:58:16;;;;;;;27.27;10.40;;;5.50;99.90;;;;;;5057375;28;20059;-44
2022/11/27 01:00:42;;;;;;;22.75;10.07;;;5.60;99.90;;;;;;5057509;28;20052;-44
2022/11/27 01:03:08;;;;;;;29.38;10.00;;;5.70;99.90;;;;;;5058038;28;20523;-43
2022/11/27 01:05:36;;;;;;;28.15;9.30;;;5.70;99.90;;;;;;5057994;28;20060;-42
2022/11/27 01:08:02;;;;;;;25.52;9.90;;;5.60;99.90;;;;;;5058308;28;20044;-45
2022/11/27 01:10:28;;;;;;;24.25;9.07;;;5.60;99.90;;;;;;5058031;28;20494;-42
2022/11/27 01:12:53;;;;;;;20.25;9.57;;;5.60;99.90;;;;;;5056154;28;20223;-44
2022/11/27 01:15:19;;;;;;;21.38;9.35;;;5.70;99.90;;;;;;5056321;28;20052;-47
2022/11/27 01:17:45;;;;;;;27.00;9.65;;;5.60;99.90;;;;;;5058418;28;20052;-44
2022/11/27 01:20:11;;;;;;;22.77;10.48;;;5.60;99.90;;;;;;5056957;28;20051;-45
2022/11/27 01:22:37;;;;;;;27.58;9.48;;;5.50;99.90;;;;;;5046559;28;20141;-46
2022/11/27 01:25:03;;;;;;;27.90;9.10;;;5.60;99.90;;;;;;5052462;28;20327;-45
2022/11/27 01:27:28;;;;;;;18.25;8.70;;;5.60;99.90;;;;;;5057928;28;20048;-41
2022/11/27 01:29:54;;;;;;;25.77;9.45;;;5.50;99.90;;;;;;5057750;28;20075;-44
2022/11/27 01:32:20;;;;;;;23.88;9.30;;;5.60;99.90;;;;;;5039700;28;20051;-44
2022/11/27 01:34:45;;;;;;;30.02;11.05;;;5.50;99.90;;;;;;5056993;28;20092;-41
2022/11/27 01:37:11;;;;;;;21.25;8.57;;;5.60;99.90;;;;;;5057926;28;20049;-47
2022/11/27 01:39:36;;;;;;;24.45;9.25;;;5.60;99.90;;;;;;5057429;28;20126;-47
2022/11/27 01:42:02;;;;;;;20.48;7.88;;;5.60;99.90;;;;;;5051727;28;20040;-47
2022/11/27 01:44:30;;;;;;;22.88;8.93;;;5.50;99.90;;;;;;5057295;28;20040;-42
2022/11/27 01:47:02;;;;;;;24.65;9.10;;;5.60;99.90;;;;;;5058527;28;20048;-46
2022/11/27 01:49:35;;;;;;;21.02;9.18;;;5.60;99.90;;;;;;5057461;28;20098;-44
2022/11/27 01:52:02;;;;;;;23.75;9.90;;;5.50;99.90;;;;;;5058066;28;20040;-42
2022/11/27 01:54:38;;;;;;;23.67;8.77;;;5.50;99.90;;;;;;5056492;28;20640;-41
2022/11/27 01:57:14;;;;;;;23.48;8.15;;;5.60;99.90;;;;;;5057991;28;20040;-41
2022/11/27 01:59:40;;;;;;;28.00;9.63;;;5.60;99.90;;;;;;5057513;28;20095;-46
2022/11/27 02:02:06;;;;;;;21.38;8.15;;;5.60;99.90;;;;;;5058167;28;20045;-45
2022/11/27 02:04:31;;;;;;;23.98;9.23;;;5.50;99.90;;;;;;5057146;28;20071;-47
2022/11/27 02:06:58;;;;;;;23.70;8.77;;;5.50;99.90;;;;;;5057014;28;20083;-46
2022/11/27 02:09:26;;;;;;;24.20;8.27;;;5.50;99.90;;;;;;5055684;28;20048;-44
2022/11/27 02:12:17;;;;;;;23.38;9.15;;;5.50;99.90;;;;;;5057388;28;20800;-42
2022/11/27 02:15:07;;;;;;;21.60;9.57;;;5.50;99.90;;;;;;5056588;28;20051;-48
2022/11/27 02:17:52;;;;;;;17.25;9.00;;;5.40;99.90;;;;;;5044851;28;20052;-48
2022/11/27 02:20:46;;;;;;;21.90;9.55;;;5.30;99.90;;;;;;5057035;28;20128;-46
2022/11/27 02:23:48;;;;;;;19.25;9.05;;;5.40;99.90;;;;;;5039046;28;20148;-44
2022/11/27 02:26:19;;;;;;;18.52;8.77;;;5.30;99.90;;;;;;5048060;28;20053;-41
2022/11/27 02:28:57;;;;;;;19.60;9.25;;;5.30;99.90;;;;;;5075060;28;20040;-43
2022/11/27 02:31:28;;;;;;;21.48;9.27;;;5.30;99.90;;;;;;5055448;28;20082;-48
2022/11/27 02:34:01;;;;;;;21.15;9.52;;;5.40;99.90;;;;;;5056169;28;20368;-41
2022/11/27 02:36:30;;;;;;;25.38;10.05;;;5.40;99.90;;;;;;5055114;28;20658;-44
2022/11/27 02:39:04;;;;;;;28.08;10.40;;;5.40;99.90;;;;;;5056887;28;20055;-48
2022/11/27 02:41:46;;;;;;;18.92;8.88;;;5.40;99.90;;;;;;5047565;28;20465;-49
2022/11/27 02:44:13;;;;;;;28.13;11.35;;;5.40;99.90;;;;;;5055116;28;20566;-45
2022/11/27 02:46:40;;;;;;;20.33;9.20;;;5.40;99.90;;;;;;5052027;28;20398;-48
2022/11/27 02:49:13;;;;;;;15.32;8.18;;;5.50;99.90;;;;;;5055797;28;20446;-41
2022/11/27 02:51:43;;;;;;;22.33;8.52;;;5.50;99.90;;;;;;5056456;28;20055;-45
2022/11/27 02:54:13;;;;;;;22.80;8.35;;;5.50;99.90;;;;;;5055815;28;20554;-43
2022/11/27 02:56:41;;;;;;;18.98;8.00;;;5.60;99.90;;;;;;5056845;28;20059;-49
2022/11/27 02:59:12;;;;;;;14.73;7.30;;;5.60;99.90;;;;;;5055653;28;20142;-48
2022/11/27 03:01:43;;;;;;;22.00;9.20;;;5.60;99.90;;;;;;5044511;28;20364;-48
2022/11/27 03:04:15;;;;;;;21.65;9.18;;;5.60;99.90;;;;;;5052390;28;20064;-44
2022/11/27 03:06:46;;;;;;;22.05;8.32;;;5.60;99.90;;;;;;5054129;28;20535;-43
2022/11/27 03:09:25;;;;;;;19.20;8.13;;;5.60;99.90;;;;;;5055345;28;20094;-45
2022/11/27 03:11:51;;;;;;;19.90;9.07;;;5.60;99.90;;;;;;5054288;28;20089;-50
2022/11/27 03:14:19;;;;;;;23.27;9.40;;;5.60;99.90;;;;;;5055237;28;20673;-44
2022/11/27 03:16:54;;;;;;;25.85;9.88;;;5.70;99.90;;;;;;5055701;28;20048;-48
2022/11/27 03:19:55;;;;;;;21.20;8.88;;;5.70;99.90;;;;;;5055616;28;20040;-43
2022/11/27 03:22:20;;;;;;;23.33;9.05;;;5.60;99.90;;;;;;5019568;28;20446;-41
2022/11/27 03:24:48;;;;;;;22.45;10.13;;;5.60;99.90;;;;;;5031512;28;20127;-42
2022/11/27 03:27:18;;;;;;;20.52;10.23;;;5.50;99.90;;;;;;5032013;28;20096;-46
2022/11/27 03:29:52;;;;;;;21.20;9.65;;;5.60;99.90;;;;;;5031565;28;20044;-42
2022/11/27 03:32:18;;;;;;;19.75;9.18;;;5.60;99.90;;;;;;5031963;28;20053;-47
2022/11/27 03:34:45;;;;;;;21.05;9.55;;;5.50;99.90;;;;;;5031222;28;20045;-42
2022/11/27 03:37:11;;;;;;;15.38;8.70;;;5.50;99.90;;;;;;5032180;28;20045;-41
2022/11/27 03:39:37;;;;;;;18.08;9.60;;;5.50;99.90;;;;;;5031411;28;20544;-41
2022/11/27 03:42:27;;;;;;;17.88;9.50;;;5.50;99.90;;;;;;5008142;28;20166;-44
2022/11/27 03:44:57;;;;;;;19.23;9.15;;;5.60;99.90;;;;;;5031291;28;20532;-45
2022/11/27 03:47:39;;;;;;;21.98;10.43;;;5.60;99.90;;;;;;5032013;28;20538;-46
2022/11/27 03:50:32;;;;;;;19.92;10.00;;;5.60;99.90;;;;;;5031627;28;20139;-42
2022/11/27 03:53:08;;;;;;;20.77;9.23;;;5.60;99.90;;;;;;5031733;28;20049;-46
2022/11/27 03:55:42;;;;;;;19.67;10.32;;;5.50;99.90;;;;;;5031717;28;20048;-44
2022/11/27 03:58:14;;;;;;;21.27;9.73;;;5.50;99.90;;;;;;5037206;28;20541;-46
2022/11/27 04:00:41;;;;;;;21.80;10.00;;;5.50;99.90;;;;;;5054488;28;20072;-43
2022/11/27 04:03:11;;;;;;;27.08;11.27;;;5.50;99.90;;;;;;5053121;28;20054;-44
2022/11/27 04:05:37;;;;;;;19.77;10.95;;;5.40;99.90;;;;;;5055152;28;20639;-46
2022/11/27 04:08:03;;;;;;;18.60;10.23;;;5.50;99.90;;;;;;5054846;28;20040;-46
2022/11/27 04:10:29;;;;;;;20.60;9.90;;;5.50;99.90;;;;;;5054342;28;20048;-49
2022/11/27 04:12:55;;;;;;;20.65;10.60;;;5.50;99.90;;;;;;5055095;28;20059;-47
2022/11/27 04:15:20;;;;;;;21.80;9.65;;;5.50;99.90;;;;;;5055041;28;20118;-41
2022/11/27 04:17:46;;;;;;;20.52;11.25;;;5.40;99.90;;;;;;5054331;28;20573;-45
2022/11/27 04:20:13;;;;;;;19.20;9.93;;;5.40;99.90;;;;;;5057923;28;20048;-44
2022/11/27 04:22:39;;;;;;;20.10;9.07;;;5.40;99.90;;;;;;5053913;28;20191;-46
2022/11/27 04:25:05;;;;;;;20.63;9.48;;;5.40;99.90;;;;;;5048367;28;20079;-47
2022/11/27 04:27:30;;;;;;;21.45;9.75;;;5.40;99.90;;;;;;5058362;28;20056;-42
2022/11/27 04:29:56;;;;;;;19.70;9.30;;;5.40;99.90;;;;;;5058428;28;20048;-43
2022/11/27 04:32:22;;;;;;;20.02;10.05;;;5.40;99.90;;;;;;5059140;28;20044;-44
2022/11/27 04:34:47;;;;;;;17.48;9.27;;;5.30;99.90;;;;;;5056738;28;20090;-45
2022/11/27 04:37:13;;;;;;;20.20;9.90;;;5.40;99.90;;;;;;5058538;28;20037;-44
2022/11/27 04:39:39;;;;;;;23.75;9.38;;;5.30;99.90;;;;;;5058246;28;20044;-45
2022/11/27 04:42:06;;;;;;;17.83;9.95;;;5.40;99.90;;;;;;5046347;28;20486;-44
2022/11/27 04:44:31;;;;;;;21.73;10.23;;;5.40;99.90;;;;;;5058156;28;20151;-43
2022/11/27 04:46:57;;;;;;;17.17;9.32;;;5.30;99.90;;;;;;5058692;28;20124;-45
2022/11/27 04:49:23;;;;;;;20.85;9.23;;;5.40;99.90;;;;;;5058673;28;20070;-48
2022/11/27 04:51:48;;;;;;;19.48;8.82;;;5.40;99.90;;;;;;5057857;28;20052;-48
2022/11/27 04:54:14;;;;;;;22.80;9.82;;;5.40;99.90;;;;;;5057643;28;20325;-46
2022/11/27 04:56:40;;;;;;;18.65;8.23;;;5.40;99.90;;;;;;5056910;28;20460;-45
2022/11/27 04:59:05;;;;;;;20.92;8.55;;;5.50;99.90;;;;;;5057574;28;20124;-42
2022/11/27 05:01:31;;;;;;;21.45;10.40;;;5.40;99.90;;;;;;5052290;28;20041;-41
2022/11/27 05:03:57;;;;;;;18.70;8.70;;;5.40;99.90;;;;;;5056720;28;20074;-44
2022/11/27 05:06:23;;;;;;;17.95;7.95;;;5.50;99.90;;;;;;5056988;28;20044;-48
2022/11/27 05:08:48;;;;;;;19.13;8.27;;;5.50;99.90;;;;;;5057966;28;20045;-48
2022/11/27 05:11:15;;;;;;;19.23;8.75;;;5.50;99.90;;;;;;5056649;28;20789;-41
2022/11/27 05:13:42;;;;;;;15.65;8.07;;;5.50;99.90;;;;;;5058066;28;20046;-44
2022/11/27 05:16:08;;;;;;;14.32;7.65;;;5.50;99.90;;;;;;5058514;28;21303;-42
2022/11/27 05:18:34;;;;;;;19.70;7.35;;;5.50;99.90;;;;;;5058007;28;20505;-44
2022/11/27 05:21:05;;;;;;;16.85;8.38;;;5.50;99.90;;;;;;5056628;28;20054;-52
2022/11/27 05:23:31;;;;;;;22.15;7.70;;;5.50;99.90;;;;;;5039506;28;20215;-44
2022/11/27 05:25:57;;;;;;;20.10;8.82;;;5.50;99.90;;;;;;5055872;28;20045;-43
2022/11/27 05:28:23;;;;;;;17.27;7.60;;;5.50;99.90;;;;;;5058469;28;20484;-43
2022/11/27 05:30:49;;;;;;;12.45;6.68;;;5.50;99.90;;;;;;5057203;28;20788;-45
2022/11/27 05:33:15;;;;;;;16.75;7.18;;;5.50;99.90;;;;;;5056763;28;20365;-45
2022/11/27 05:35:41;;;;;;;16.52;7.07;;;5.50;99.90;;;;;;5057180;28;20119;-49
2022/11/27 05:38:07;;;;;;;15.25;7.03;;;5.50;99.90;;;;;;5057789;28;20108;-45
2022/11/27 05:40:33;;;;;;;16.63;8.40;;;5.60;99.90;;;;;;5053436;28;20080;-46
2022/11/27 05:42:59;;;;;;;13.55;7.15;;;5.60;99.90;;;;;;5048538;28;20744;-47
2022/11/27 05:45:25;;;;;;;14.18;7.35;;;5.60;99.90;;;;;;5057833;28;20051;-47
2022/11/27 05:47:50;;;;;;;18.38;8.13;;;5.50;99.90;;;;;;5057179;28;20051;-44
2022/11/27 05:50:16;;;;;;;13.80;6.60;;;5.60;99.90;;;;;;5056524;28;20368;-47
2022/11/27 05:52:42;;;;;;;15.70;7.05;;;5.60;99.90;;;;;;5056848;28;20495;-41
2022/11/27 05:55:08;;;;;;;17.38;7.00;;;5.50;99.90;;;;;;5057441;28;20105;-45
2022/11/27 05:57:33;;;;;;;16.58;7.03;;;5.60;99.90;;;;;;5057223;28;20048;-42
2022/11/27 05:59:59;;;;;;;18.45;7.30;;;5.60;99.90;;;;;;5056406;28;20577;-49
2022/11/27 06:02:25;;;;;;;13.98;6.60;;;5.60;99.90;;;;;;5057476;28;20461;-45
2022/11/27 06:04:51;;;;;;;13.82;7.22;;;5.60;99.90;;;;;;5057417;28;20157;-42
2022/11/27 06:07:17;;;;;;;15.43;7.25;;;5.60;99.90;;;;;;5057603;28;20553;-41
2022/11/27 06:09:43;;;;;;;14.77;7.55;;;5.60;99.90;;;;;;5056462;28;20159;-43
2022/11/27 06:12:08;;;;;;;14.70;6.30;;;5.50;99.90;;;;;;5057435;28;20422;-41
2022/11/27 06:14:34;;;;;;;15.82;7.03;;;5.50;99.90;;;;;;5056174;28;20087;-44
2022/11/27 06:17:01;;;;;;;13.63;7.45;;;5.60;99.90;;;;;;5057004;28;20528;-47
2022/11/27 06:19:27;;;;;;;15.50;6.85;;;5.60;99.90;;;;;;5056307;28;20094;-47
2022/11/27 06:21:53;;;;;;;22.15;7.57;;;5.60;99.90;;;;;;5050624;28;20214;-48
2022/11/27 06:24:18;;;;;;;16.65;7.00;;;5.60;99.90;;;;;;5041778;28;20079;-44
2022/11/27 06:26:44;;;;;;;13.50;6.30;;;5.60;99.90;;;;;;5057210;28;20047;-41
2022/11/27 06:29:10;;;;;;;12.95;6.38;;;5.60;99.90;;;;;;5055991;28;20040;-46
2022/11/27 06:31:35;;;;;;;18.13;6.28;;;5.60;99.90;;;;;;5057439;28;20045;-45
2022/11/27 06:34:02;;;;;;;13.70;7.28;;;5.60;99.90;;;;;;5056329;28;20128;-43
2022/11/27 06:36:31;;;;;;;16.33;6.43;;;5.60;99.90;;;;;;5057728;28;20105;-43
2022/11/27 06:38:57;;;;;;;12.75;5.82;;;5.60;99.90;;;;;;5055121;28;20048;-44
2022/11/27 06:41:25;;;;;;;14.65;7.13;;;5.60;99.90;;;;;;5046821;28;20037;-44
2022/11/27 06:43:51;;;;;;;11.48;5.95;;;5.70;99.90;;;;;;5054510;28;20099;-47
2022/11/27 06:46:19;;;;;;;13.43;5.82;;;5.60;99.90;;;;;;5056548;28;20486;-44
2022/11/27 06:48:46;;;;;;;16.80;5.90;;;5.60;99.90;;;;;;5055191;28;20041;-47
2022/11/27 06:51:14;;;;;;;15.00;6.10;;;5.70;99.90;;;;;;5055981;28;20203;-47
2022/11/27 06:53:41;;;;;;;13.13;5.53;;;5.70;99.90;;;;;;5055584;28;20052;-45
2022/11/27 06:56:09;;;;;;;11.88;5.68;;;5.70;99.90;;;;;;5055760;28;20051;-44
2022/11/27 06:58:35;;;;;;;14.23;5.60;;;5.70;99.90;;;;;;5056095;28;20447;-46
2022/11/27 07:01:03;;;;;;;12.10;6.20;;;5.70;99.90;;;;;;5055667;28;20462;-45
2022/11/27 07:03:29;;;;;;;11.93;6.15;;;5.70;99.90;;;;;;5055777;28;20405;-45
2022/11/27 07:05:58;;;;;;;9.35;4.63;;;5.70;99.90;;;;;;5056371;28;20040;-45
2022/11/27 07:08:24;;;;;;;14.93;6.15;;;5.70;99.90;;;;;;5056580;28;20439;-42
2022/11/27 07:10:50;;;;;;;10.82;5.30;;;5.70;99.90;;;;;;5054787;28;20051;-48
2022/11/27 07:13:15;;;;;;;12.32;5.97;;;5.70;99.90;;;;;;5056112;28;20190;-45
2022/11/27 07:15:41;;;;;;;13.25;5.22;;;5.70;99.90;;;;;;5055774;28;20097;-47
2022/11/27 07:18:07;;;;;;;15.57;5.57;;;5.70;99.90;;;;;;5056262;28;20052;-46
2022/11/27 07:20:32;;;;;;;11.05;4.88;;;5.70;99.90;;;;;;5055111;28;20044;-48
2022/11/27 07:22:58;;;;;;;12.52;5.53;;;5.80;99.90;;;;;;5041635;28;20558;-42
2022/11/27 07:25:24;;;;;;;14.35;5.68;;;5.80;99.90;;;;;;5067770;28;20052;-42
2022/11/27 07:27:49;;;;;;;13.13;6.05;;;5.80;99.90;;;;;;5055175;28;20067;-45
2022/11/27 07:30:15;;;;;;;13.52;5.80;;;5.80;99.90;;;;;;5055191;28;20044;-45
2022/11/27 07:32:41;;;;;;;13.07;5.15;;;5.80;99.90;;;;;;5053547;28;20044;-44
2022/11/27 07:35:07;;;;;;;9.38;4.75;;;5.80;99.90;;;;;;5056267;28;20048;-46
2022/11/27 07:37:33;;;;;;;11.13;5.43;;;5.80;99.90;;;;;;5042591;28;20162;-45
2022/11/27 07:39:59;;;;;;;11.23;5.07;;;5.80;99.90;;;;;;5055028;28;20447;-44
2022/11/27 07:42:25;;;;;;;10.65;5.90;;;5.80;99.90;;;;;;5044338;28;20144;-43
2022/11/27 07:44:50;;;;;;;8.85;5.55;;;5.90;99.90;;;;;;5056212;28;20044;-46
2022/11/27 07:47:16;;;;;;;9.15;4.80;;;5.90;99.90;;;;;;5053715;28;20435;-45
2022/11/27 07:49:41;;;;;;;10.90;4.82;;;5.90;99.90;;;;;;5053716;28;20052;-47
2022/11/27 07:52:07;;;;;;;9.20;5.22;;;5.90;99.90;;;;;;5054532;28;20133;-48
2022/11/27 07:54:33;;;;;;;10.48;5.18;;;5.90;99.90;;;;;;5054554;28;20422;-47
2022/11/27 07:56:59;;;;;;;12.88;6.10;;;5.90;99.90;;;;;;5056090;28;20059;-45
2022/11/27 07:59:25;;;;;;;12.43;5.88;;;5.90;99.90;;;;;;5055345;28;20394;-42
2022/11/27 08:01:50;;;;;;;13.68;5.55;;;5.90;99.90;;;;;;5056623;28;20117;-45
2022/11/27 08:04:16;;;;;;;10.73;5.30;;;5.90;99.90;;;;;;5055077;28;20060;-45
2022/11/27 08:06:42;;;;;;;10.85;5.45;;;5.90;99.90;;;;;;5053694;28;20506;-48
2022/11/27 08:09:07;;;;;;;14.98;5.68;;;5.90;99.90;;;;;;5054709;28;20071;-45
2022/11/27 08:11:34;;;;;;;13.50;6.07;;;5.90;99.90;;;;;;5055968;28;20056;-43
2022/11/27 08:14:02;;;;;;;11.82;6.35;;;5.90;99.90;;;;;;5053573;28;20056;-47
2022/11/27 08:16:28;;;;;;;9.52;6.55;;;5.90;99.90;;;;;;5056061;28;20037;-43
2022/11/27 08:18:54;;;;;;;11.23;6.47;;;5.90;99.90;;;;;;5055614;28;20460;-43
2022/11/27 08:21:20;;;;;;;11.68;6.32;;;5.90;99.90;;;;;;5055269;28;20044;-46
2022/11/27 08:23:45;;;;;;;15.35;6.57;;;5.90;99.90;;;;;;5042157;28;20549;-43
2022/11/27 08:26:12;;;;;;;13.73;6.75;;;5.90;99.90;;;;;;5055101;28;20510;-49
2022/11/27 08:28:39;;;;;;;12.52;6.55;;;5.90;99.90;;;;;;5055218;28;20047;-45
2022/11/27 08:31:06;;;;;;;13.15;6.15;;;5.90;99.90;;;;;;5055547;28;20075;-49
2022/11/27 08:33:33;;;;;;;13.40;6.50;;;5.90;99.90;;;;;;5054941;28;20608;-42
2022/11/27 08:35:59;;;;;;;13.88;6.30;;;5.90;99.90;;;;;;5055401;28;20298;-41
2022/11/27 08:38:25;;;;;;;12.13;6.15;;;5.90;99.90;;;;;;5055505;28;20048;-47
2022/11/27 08:40:59;;;;;;;15.90;6.65;;;5.90;99.90;;;;;;5048457;28;20045;-42
2022/11/27 08:43:25;;;;;;;12.77;7.15;;;6.00;99.90;;;;;;5049267;28;20136;-47
2022/11/27 08:45:52;;;;;;;14.50;7.10;;;5.90;99.90;;;;;;5055510;28;20048;-42
2022/11/27 08:48:18;;;;;;;10.13;5.95;;;5.90;99.90;;;;;;5054816;28;20118;-50
2022/11/27 08:50:45;;;;;;;17.75;7.30;;;5.90;99.90;;;;;;5054569;28;20040;-41
2022/11/27 08:53:11;;;;;;;11.55;6.72;;;5.90;99.90;;;;;;5054816;28;20090;-43
2022/11/27 08:55:37;;;;;;;13.25;6.18;;;5.90;99.90;;;;;;5055145;28;20505;-44
2022/11/27 08:58:02;;;;;;;15.88;6.85;;;5.90;99.90;;;;;;5054348;28;20040;-45
2022/11/27 09:00:29;;;;;;;14.07;7.32;;;5.90;99.90;;;;;;5054421;28;20531;-45
2022/11/27 09:02:55;;;;;;;13.52;7.25;;;5.90;99.90;;;;;;5052174;28;20360;-44
2022/11/27 09:05:21;;;;;;;13.05;7.28;;;5.90;99.90;;;;;;5057187;28;20043;-45
2022/11/27 09:07:48;;;;;;;15.10;7.28;;;5.90;99.90;;;;;;5056920;28;21132;-45
2022/11/27 09:10:14;;;;;;;14.15;7.47;;;5.80;99.90;;;;;;5056782;28;20064;-42
2022/11/27 09:12:40;;;;;;;11.18;7.30;;;5.90;99.90;;;;;;5056932;28;20454;-43
2022/11/27 09:15:06;;;;;;;17.23;8.18;;;5.90;99.90;;;;;;5056350;28;20101;-45
2022/11/27 09:17:32;;;;;;;13.93;7.70;;;5.90;99.90;;;;;;5038630;28;20045;-45
2022/11/27 09:19:57;;;;;;;14.38;8.55;;;5.90;99.90;;;;;;5057910;28;20041;-43
2022/11/27 09:22:23;;;;;;;14.13;8.18;;;5.90;99.90;;;;;;5054945;28;20037;-44
2022/11/27 09:24:48;;;;;;;14.18;7.90;;;5.90;99.90;;;;;;5045911;28;20215;-45
2022/11/27 09:27:14;;;;;;;19.92;8.90;;;5.80;99.90;;;;;;5055887;28;20048;-43
2022/11/27 09:29:40;;;;;;;16.73;7.57;;;5.90;99.90;;;;;;5057342;28;20041;-46
2022/11/27 09:32:05;;;;;;;16.40;8.82;;;5.80;99.90;;;;;;5056897;28;20049;-41
2022/11/27 09:34:31;;;;;;;21.00;9.48;;;5.80;99.90;;;;;;5056629;28;20144;-44
2022/11/27 09:36:56;;;;;;;15.75;9.40;;;5.80;99.90;;;;;;5057702;28;20513;-45
2022/11/27 09:39:25;;;;;;;15.02;8.70;;;5.80;99.90;;;;;;5057041;28;20577;-46
2022/11/27 09:41:53;;;;;;;20.83;9.27;;;5.80;99.90;;;;;;5027498;28;20045;-42
2022/11/27 09:44:44;;;;;;;16.90;8.70;;;5.80;99.90;;;;;;5055520;28;20087;-44
2022/11/27 09:47:37;;;;;;;12.65;7.97;;;5.80;99.90;;;;;;5057422;28;20055;-43
2022/11/27 09:50:25;;;;;;;16.40;9.02;;;5.80;99.90;;;;;;5055501;28;20040;-46
2022/11/27 09:52:56;;;;;;;18.83;8.60;;;5.90;99.90;;;;;;5052668;28;20386;-42
2022/11/27 09:55:30;;;;;;;19.63;9.43;;;5.80;99.90;;;;;;5053851;28;20055;-46
2022/11/27 09:58:10;;;;;;;16.45;8.80;;;5.80;99.90;;;;;;5056042;28;20404;-43
2022/11/27 10:00:36;;;;;;;18.63;10.40;;;5.80;99.90;;;;;;5055527;28;20146;-46
2022/11/27 10:03:01;;;;;;;17.95;9.65;;;5.90;99.90;;;;;;5056713;28;20049;-42
2022/11/27 10:06:04;;;;;;;18.15;9.50;;;5.90;99.90;;;;;;5056127;28;20487;-47
2022/11/27 10:08:42;;;;;;;19.08;8.02;;;5.90;99.90;;;;;;5056848;28;20435;-46
2022/11/27 10:11:31;;;;;;;14.52;9.27;;;5.90;99.90;;;;;;5056821;28;20071;-47
2022/11/27 10:14:08;;;;;;;17.15;8.88;;;5.90;99.90;;;;;;5056979;28;20365;-45
2022/11/27 10:16:43;;;;;;;16.08;8.30;;;6.00;99.90;;;;;;5056345;28;20102;-48
2022/11/27 10:19:36;;;;;;;18.30;9.18;;;6.00;99.90;;;;;;5056853;28;20112;-47
2022/11/27 10:22:05;;;;;;;18.10;9.88;;;5.90;99.90;;;;;;5056611;28;20552;-41
2022/11/27 10:24:35;;;;;;;18.40;9.38;;;6.00;99.90;;;;;;5053419;28;20112;-45
2022/11/27 10:27:08;;;;;;;18.13;9.57;;;6.00;99.90;;;;;;5056615;28;20113;-43
2022/11/27 10:29:40;;;;;;;20.40;10.77;;;6.10;99.90;;;;;;5055342;28;20040;-45
2022/11/27 10:32:13;;;;;;;15.68;9.00;;;6.10;99.90;;;;;;5055571;28;20040;-42
2022/11/27 10:34:41;;;;;;;;;;;6.10;99.90;;;;;;5055976;28;20053;-45
2022/11/27 10:37:24;;;;;;;15.77;8.70;;;6.10;99.90;;;;;;5058420;28;19923;-41
2022/11/27 10:39:59;;;;;;;17.02;8.80;;;6.10;99.90;;;;;;5051867;28;20364;-42
2022/11/27 10:42:33;;;;;;;14.82;8.02;;;6.10;99.90;;;;;;5055679;28;20042;-49
2022/11/27 10:45:16;;;;;;;20.10;9.10;;;6.10;99.90;;;;;;5053878;28;20048;-47
2022/11/27 10:47:45;;;;;;;14.20;8.85;;;6.20;99.90;;;;;;5056067;28;20123;-43
2022/11/27 10:50:15;;;;;;;18.08;8.80;;;6.20;99.90;;;;;;5055212;28;20438;-46
2022/11/27 10:53:08;;;;;;;16.88;9.10;;;6.20;99.90;;;;;;5055077;28;20043;-46
2022/11/27 10:56:13;;;;;;;17.17;9.43;;;6.20;99.90;;;;;;5035592;28;20443;-46
2022/11/27 10:59:04;;;;;;;17.65;9.88;;;6.20;99.90;;;;;;5051370;28;20310;-47
2022/11/27 11:01:41;;;;;;;18.38;9.13;;;6.20;99.90;;;;;;5052281;28;20127;-46
2022/11/27 11:04:08;;;;;;;16.08;9.52;;;6.20;99.90;;;;;;5033951;28;20049;-45
2022/11/27 11:06:44;;;;;;;17.35;9.60;;;6.20;99.90;;;;;;5045377;28;20064;-47
2022/11/27 11:09:17;;;;;;;18.02;10.55;;;6.20;99.90;;;;;;5034832;28;20335;-47
2022/11/27 11:11:43;;;;;;;16.65;10.15;;;6.20;99.90;;;;;;5034867;28;20475;-48
2022/11/27 11:14:26;;;;;;;17.00;9.93;;;6.20;99.90;;;;;;5049273;28;20040;-45
2022/11/27 11:16:56;;;;;;;17.27;10.70;;;6.20;99.90;;;;;;5047243;28;20086;-42
2022/11/27 11:19:41;;;;;;;19.30;10.07;;;6.30;99.90;;;;;;5052729;28;20036;-44
2022/11/27 11:22:17;;;;;;;18.45;10.30;;;6.30;99.90;;;;;;5052003;28;20044;-45
2022/11/27 11:24:51;;;;;;;18.00;9.55;;;6.30;99.90;;;;;;5042260;28;20044;-43
2022/11/27 11:27:22;;;;;;;16.13;9.55;;;6.30;99.90;;;;;;5055296;28;20042;-41
2022/11/27 11:29:54;;;;;;;17.67;9.98;;;6.40;99.90;;;;;;5055663;28;20131;-46
2022/11/27 11:32:19;;;;;;;16.60;10.13;;;6.40;99.90;;;;;;5054694;28;20624;-48
2022/11/27 11:34:51;;;;;;;16.30;10.60;;;6.40;99.90;;;;;;5055242;28;20052;-46
2022/11/27 11:37:34;;;;;;;17.60;9.93;;;6.40;99.90;;;;;;5054636;28;20048;-44
2022/11/27 11:40:12;;;;;;;17.95;9.50;;;6.40;99.90;;;;;;5054258;28;20044;-48
2022/11/27 11:43:01;;;;;;;17.77;10.35;;;6.40;99.90;;;;;;5066264;28;20111;-46
2022/11/27 11:45:29;;;;;;;16.52;10.05;;;6.50;99.90;;;;;;5053402;28;20119;-42
2022/11/27 11:47:57;;;;;;;17.02;9.93;;;6.50;99.90;;;;;;5054376;28;20418;-47
2022/11/27 11:51:05;;;;;;;18.00;9.55;;;6.50;99.90;;;;;;5054857;28;20151;-46
2022/11/27 11:53:38;;;;;;;18.50;10.55;;;6.50;99.90;;;;;;5053232;28;20067;-47
2022/11/27 11:56:43;;;;;;;19.13;10.45;;;6.50;99.90;;;;;;5052116;28;20059;-46
2022/11/27 11:59:13;;;;;;;17.23;10.48;;;6.50;99.90;;;;;;4972051;28;20046;-45
2022/11/27 12:01:46;;;;;;;17.00;10.23;;;6.50;99.90;;;;;;4957586;28;20499;-46
2022/11/27 12:04:12;;;;;;;17.45;10.25;;;6.60;99.90;;;;;;4972649;28;20190;-47
2022/11/27 12:07:20;;;;;;;19.40;10.40;;;6.50;99.90;;;;;;4972238;28;20054;-47
2022/11/27 12:10:04;;;;;;;20.13;9.82;;;6.50;99.90;;;;;;4970701;28;20046;-48
2022/11/27 12:12:46;;;;;;;19.73;10.32;;;6.50;99.90;;;;;;4971515;28;20587;-48
2022/11/27 12:15:27;;;;;;;16.20;9.68;;;6.50;99.90;;;;;;4948987;28;20669;-44
2022/11/27 12:18:13;;;;;;;18.08;10.50;;;6.50;99.90;;;;;;4970682;28;20049;-44
2022/11/27 12:20:58;;;;;;;20.35;11.18;;;6.60;99.90;;;;;;4991371;28;20057;-41
2022/11/27 12:23:23;;;;;;;15.88;9.98;;;6.50;99.90;;;;;;4991102;28;20472;-47
2022/11/27 12:26:08;;;;;;;18.50;10.07;;;6.60;99.90;;;;;;4988804;28;20064;-45
2022/11/27 12:29:01;;;;;;;20.23;10.00;;;6.60;99.90;;;;;;4970162;28;20576;-47
2022/11/27 12:31:41;;;;;;;19.02;10.13;;;6.60;99.90;;;;;;4981947;28;20088;-45
2022/11/27 12:34:25;;;;;;;16.13;10.02;;;6.60;99.90;;;;;;5035040;28;20060;-49
2022/11/27 12:36:59;;;;;;;15.57;9.23;;;6.60;99.90;;;;;;5052837;28;20117;-44
2022/11/27 12:39:43;;;;;;;16.20;10.20;;;6.70;99.90;;;;;;5055382;28;20139;-47
2022/11/27 12:42:43;;;;;;;15.20;9.95;;;6.60;99.90;;;;;;5045616;28;20558;-44
2022/11/27 12:45:16;;;;;;;17.60;10.50;;;6.60;99.90;;;;;;5056613;28;20486;-47
2022/11/27 12:47:48;;;;;;;18.75;10.32;;;6.60;99.90;;;;;;5058255;28;20045;-45
2022/11/27 12:50:29;;;;;;;19.77;10.23;;;6.60;99.90;;;;;;5057427;28;20521;-48
2022/11/27 12:53:10;;;;;;;16.20;9.95;;;6.60;99.90;;;;;;5058251;28;20132;-46
2022/11/27 12:55:39;;;;;;;18.23;11.07;;;6.60;99.90;;;;;;5050806;28;20076;-45
2022/11/27 12:58:28;;;;;;;15.73;9.73;;;6.60;99.90;;;;;;5040184;28;21344;-47
2022/11/27 13:01:05;;;;;;;17.20;10.32;;;6.60;99.90;;;;;;5036417;28;20395;-45
2022/11/27 13:03:40;;;;;;;19.13;10.20;;;6.60;99.90;;;;;;5037953;28;20044;-47